Latest Weather Observations for Double Island Point

IDQ60801

Issued at 12:01 pm EST Friday 28 August 2015 (issued every 30 minutes, with the page automatically refreshed every 10 minutes)

About weather observations | Map of weather stations | Latest weather observations for QLD | Other Formats
Station Details ID: 040068 Name: DOUBLE ISLAND POINT LIGHTHOUSE Lat: -25.93 Lon: 153.19 Height: 95.64 m
Data from the previous 72 hours. | See also: Recent months at Double Island Point
Date/Time
EST
Temp
°C
App
Temp
°C
Dew
Point
Rel
Hum
%
Delta-T
°C
Wind Press
QNH
hPa
Press
MSL
hPa
Rain
since 9 am
mm
Dir
 
Spd
km/h
Gust
km/h
Spd
kts
Gust
kts
28/12:00pm 19.7 17.5 16.0 79 2.2 SSE 22 28 12 15 1020.6 1020.4 0.4
28/11:30am 19.9 18.9 17.5 86 1.5 SSE 19 24 10 13 1021.1 1020.9 0.4
28/11:00am 19.0 17.8 17.1 89 1.2 S 19 22 10 12 1021.6 1021.4 0.4
28/10:30am 18.9 18.0 16.9 88 1.2 SSW 17 20 9 11 1021.8 1021.6 0.4
28/10:00am 19.3 18.3 16.7 85 1.6 S 17 22 9 12 1022.0 1021.8 0.0
28/09:30am 19.7 19.4 16.5 82 1.9 S 13 17 7 9 1022.1 1021.9 0.0
28/09:00am 21.0 23.4 18.0 83 1.9 SW 2 7 1 4 1022.2 1022.0 0.0
28/08:30am 20.5 22.0 17.7 84 1.7 W 6 9 3 5 1021.9 1021.7 0.0
28/08:00am 19.8 20.9 17.2 85 1.6 W 7 11 4 6 1021.6 1021.4 0.0
28/07:30am 19.6 20.4 17.2 86 1.5 W 9 13 5 7 1021.2 1021.0 0.0
28/07:00am 19.1 19.7 16.7 86 1.4 NNW 9 13 5 7 1020.8 1020.6 0.0
28/06:30am 19.1 20.0 16.7 86 1.5 NNW 7 13 4 7 1020.5 1020.3 0.0
28/06:00am 19.1 20.0 16.7 86 1.4 NNW 7 13 4 7 1020.5 1020.3 0.0
28/05:30am 19.1 19.6 16.5 85 1.6 NNW 9 13 5 7 1020.1 1019.9 0.0
28/05:00am 19.1 19.3 16.7 86 1.4 WNW 11 13 6 7 1020.0 1019.8 0.0
28/04:30am 19.1 19.2 16.5 85 1.6 NNW 11 13 6 7 1019.9 1019.7 0.0
28/04:00am 19.2 19.3 16.6 85 1.6 NNW 11 17 6 9 1019.8 1019.6 0.0
28/03:30am 19.3 19.5 16.7 85 1.6 NNW 11 13 6 7 1019.6 1019.4 0.0
28/03:00am 19.3 19.8 16.5 84 1.7 NNW 9 11 5 6 1019.5 1019.3 0.0
28/02:30am 19.5 19.7 16.7 84 1.7 NNW 11 13 6 7 1019.8 1019.6 0.0
28/02:00am 19.7 20.0 16.9 84 1.7 NW 11 20 6 11 1020.1 1019.9 0.0
28/01:30am 19.7 20.3 16.9 84 1.7 NW 9 13 5 7 1020.3 1020.1 0.0
28/01:00am 19.6 20.3 17.0 85 1.6 NNW 9 11 5 6 1020.5 1020.3 0.0
28/12:30am 19.5 19.7 16.7 84 1.7 NNW 11 17 6 9 1020.7 1020.5 0.0
28/12:00am 19.4 20.5 16.6 84 1.7 N 6 11 3 6 1020.8 1020.6 0.0
 
Date/Time
EST
Temp
°C
App
Temp
°C
Dew
Point
Rel
Hum
%
Delta-T
°C
Wind Press
QNH
hPa
Press
MSL
hPa
Rain
since 9 am
mm
Dir
 
Spd
km/h
Gust
km/h
Spd
kts
Gust
kts
27/11:30pm 19.2 19.7 16.6 85 1.6 N 9 15 5 8 1020.7 1020.5 0.0
27/11:00pm 18.7 19.3 15.9 84 1.7 NNE 7 11 4 6 1020.9 1020.7 0.0
27/10:30pm 18.6 20.2 16.0 85 1.5 SE 2 6 1 3 1021.1 1020.9 0.0
27/10:00pm 18.3 19.0 15.6 84 1.6 SE 6 7 3 4 1021.1 1020.9 0.0
27/09:30pm 18.1 18.7 15.4 84 1.6 SE 6 9 3 5 1021.4 1021.2 0.0
27/09:00pm 17.9 18.3 15.2 84 1.6 S 7 11 4 6 1021.7 1021.5 0.0
27/08:30pm 17.7 17.2 15.0 84 1.6 S 11 15 6 8 1021.6 1021.4 0.0
27/08:00pm 17.7 15.5 15.0 84 1.6 S 20 24 11 13 1021.8 1021.6 0.0
27/07:30pm 17.5 14.2 15.1 86 1.4 S 26 30 14 16 1021.5 1021.3 0.0
27/07:00pm 17.4 13.4 15.2 87 1.3 S 30 33 16 18 1021.1 1020.9 0.0
27/06:30pm 17.6 12.7 15.4 87 1.3 S 35 43 19 23 1020.7 1020.5 0.0
27/06:00pm 17.8 12.9 15.4 86 1.4 S 35 43 19 23 1020.5 1020.3 0.0
27/05:30pm 18.8 14.1 14.9 78 2.3 SSW 33 50 18 27 1019.9 1019.7 0.0
27/05:27pm 19.0 15.2 14.7 76 2.5 SSW 28 48 15 26 1020.0 1019.8 0.0
27/05:26pm 19.3 16.3 14.8 75 2.6 SSW 24 43 13 23 1020.1 1019.9 0.0
27/05:00pm 22.0 22.6 15.8 68 3.7 N 7 13 4 7 1019.3 1019.1 0.0
27/04:30pm 23.3 24.3 16.8 67 4.0 N 7 11 4 6 1018.8 1018.6 0.0
27/04:00pm 23.5 24.2 17.9 71 3.5 N 11 20 6 11 1018.3 1018.1 0.0
27/03:30pm 23.8 21.8 18.2 71 3.5 N 26 32 14 17 1018.3 1018.1 0.0
27/03:00pm 23.8 20.4 17.8 69 3.8 NNE 32 37 17 20 1018.3 1018.1 0.0
27/02:30pm 23.8 20.8 17.8 69 3.8 N 30 39 16 21 1018.7 1018.5 0.0
27/02:00pm 24.1 21.3 18.1 69 3.8 N 30 37 16 20 1018.7 1018.5 0.0
27/01:30pm 24.4 24.7 17.9 67 4.1 N 13 26 7 14 1019.0 1018.8 0.0
27/01:00pm 24.9 26.3 18.6 68 4.0 N 9 17 5 9 1019.3 1019.1 0.0
27/12:30pm 23.8 23.8 17.3 67 4.0 N 13 22 7 12 1019.4 1019.2 0.0
27/12:00pm 24.0 25.2 18.2 70 3.7 N 9 15 5 8 1020.2 1020.0 0.0
27/11:30am 22.9 23.8 17.6 72 3.3 N 9 17 5 9 1020.4 1020.2 0.0
27/11:00am 23.1 23.7 17.8 72 3.3 N 11 20 6 11 1020.6 1020.4 0.0
27/10:30am 23.4 24.3 18.5 74 3.1 N 11 17 6 9 1021.0 1020.8 0.0
27/10:00am 22.5 23.8 18.5 78 2.5 N 9 17 5 9 1021.1 1020.9 0.0
27/09:30am 21.2 22.2 17.8 81 2.1 N 9 15 5 8 1021.4 1021.2 0.0
27/09:00am 20.9 22.6 18.5 86 1.5 NNW 7 13 4 7 1021.6 1021.4 0.0
27/08:30am 20.4 22.1 18.5 89 1.2 N 7 11 4 6 1021.4 1021.2 0.0
27/08:00am 19.7 18.7 18.0 90 1.0 NNW 20 26 11 14 1021.6 1021.4 0.0
27/07:30am 19.4 18.4 17.9 91 0.9 NNW 20 26 11 14 1021.5 1021.3 0.0
27/07:00am 19.1 17.9 17.6 91 0.9 NNW 20 28 11 15 1021.4 1021.2 0.0
27/06:30am 18.8 17.5 17.3 91 0.9 NW 20 24 11 13 1021.2 1021.0 0.0
27/06:00am 18.7 17.4 17.2 91 0.9 NW 20 24 11 13 1020.8 1020.6 0.0
27/05:30am 18.8 17.5 17.3 91 0.9 NW 20 24 11 13 1020.6 1020.4 0.0
27/05:00am 18.9 17.8 17.4 91 0.9 NW 19 22 10 12 1020.5 1020.3 0.0
27/04:30am 18.9 17.6 17.2 90 1.0 NNW 20 24 11 13 1020.3 1020.1 0.0
27/04:00am 19.0 17.3 17.3 90 1.0 NNW 22 26 12 14 1020.2 1020.0 0.0
27/03:30am 19.1 17.8 17.2 89 1.2 NW 20 26 11 14 1020.2 1020.0 0.0
27/03:00am 19.1 17.4 17.2 89 1.2 NNW 22 28 12 15 1020.2 1020.0 0.0
27/02:30am 19.1 17.4 17.2 89 1.2 NNW 22 28 12 15 1020.5 1020.3 0.0
27/02:00am 19.2 17.2 17.3 89 1.2 NNW 24 30 13 16 1020.5 1020.3 0.0
27/01:30am 19.3 18.1 17.4 89 1.2 NW 20 26 11 14 1021.1 1020.9 0.0
27/01:00am 19.3 18.2 17.4 89 1.2 NNW 19 22 10 12 1021.3 1021.1 0.0
27/12:30am 19.4 18.3 17.4 88 1.2 NNW 19 24 10 13 1021.4 1021.2 0.0
27/12:00am 19.4 18.2 17.4 88 1.2 NNW 20 24 11 13 1021.6 1021.4 0.0
 
Date/Time
EST
Temp
°C
App
Temp
°C
Dew
Point
Rel
Hum
%
Delta-T
°C
Wind Press
QNH
hPa
Press
MSL
hPa
Rain
since 9 am
mm
Dir
 
Spd
km/h
Gust
km/h
Spd
kts
Gust
kts
26/11:30pm 19.5 18.8 17.3 87 1.3 NW 17 20 9 11 1022.0 1021.8 0.0
26/11:00pm 19.7 18.0 17.3 86 1.5 NNW 22 28 12 15 1021.9 1021.7 0.0
26/10:30pm 19.5 17.3 16.9 85 1.6 NNW 24 28 13 15 1021.7 1021.5 0.0
26/10:00pm 19.4 17.9 16.8 85 1.6 NNW 20 24 11 13 1021.6 1021.4 0.0
26/09:30pm 19.7 18.9 17.1 85 1.6 NW 17 20 9 11 1021.6 1021.4 0.0
26/09:00pm 19.8 18.0 17.0 84 1.7 NNW 22 26 12 14 1021.6 1021.4 0.0
26/08:30pm 19.9 18.5 16.9 83 1.8 NNW 20 24 11 13 1021.4 1021.2 0.0
26/08:00pm 20.1 18.8 17.3 84 1.7 NW 20 26 11 14 1021.2 1021.0 0.0
26/07:30pm 20.3 19.8 17.7 85 1.6 NNW 17 20 9 11 1020.8 1020.6 0.0
26/07:00pm 20.8 22.4 18.2 85 1.6 N 7 13 4 7 1020.0 1019.8 0.0
26/06:30pm 20.8 21.4 17.8 83 1.9 N 11 15 6 8 1019.5 1019.3 0.0
26/06:00pm 20.9 21.5 17.7 82 2.0 N 11 17 6 9 1019.1 1018.9 0.0
26/05:30pm 21.2 21.5 17.8 81 2.1 N 13 19 7 10 1018.7 1018.5 0.0
26/05:00pm 21.9 22.2 17.9 78 2.5 N 13 24 7 13 1018.5 1018.3 0.0
26/04:30pm 22.7 23.0 17.8 74 3.1 N 13 24 7 13 1018.2 1018.0 0.0
26/04:00pm 23.2 24.3 17.9 72 3.3 N 9 15 5 8 1018.2 1018.0 0.0
26/03:30pm 23.5 24.4 18.4 73 3.2 NNW 11 24 6 13 1018.0 1017.8 0.0
26/03:00pm 23.8 24.6 18.2 71 3.5 N 11 22 6 12 1018.3 1018.1 0.0
26/02:30pm 24.3 26.2 18.5 70 3.7 N 6 13 3 7 1018.5 1018.3 0.0
26/02:00pm 24.2 25.5 18.4 70 3.7 NNW 9 13 5 7 1018.9 1018.7 0.0
26/01:30pm 24.1 26.1 18.7 72 3.4 N 6 11 3 6 1019.0 1018.8 0.0
26/01:00pm 23.9 26.0 19.0 74 3.1 NNW 6 7 3 4 1019.5 1019.3 0.0
26/12:30pm 23.2 24.4 18.3 74 3.1 NNW 9 17 5 9 1020.0 1019.8 0.0
26/12:00pm 22.3 23.1 18.1 77 2.6 WNW 11 17 6 9 1020.5 1020.3 0.0
26/11:30am 21.1 22.3 17.3 79 2.3 NNW 7 11 4 6 1020.9 1020.7 0.0
26/11:00am 21.0 21.0 17.2 79 2.3 NW 13 15 7 8 1021.2 1021.0 0.0
26/10:30am 21.3 20.8 17.7 80 2.2 NW 17 22 9 12 1021.6 1021.4 0.0
26/10:00am 21.8 20.0 17.8 78 2.5 NW 24 32 13 17 1021.6 1021.4 0.0
26/09:30am 20.6 19.1 17.8 84 1.7 NW 22 30 12 16 1021.7 1021.5 0.0
26/09:00am 20.1 19.5 17.5 85 1.6 NW 17 28 9 15 1021.7 1021.5 0.0
26/08:30am 20.1 19.6 17.9 87 1.4 NW 17 24 9 13 1021.5 1021.3 0.0
26/08:00am 20.3 20.7 18.1 87 1.4 NNW 13 17 7 9 1021.2 1021.0 0.0
26/07:30am 19.9 19.8 17.9 88 1.2 NW 15 20 8 11 1021.1 1020.9 0.0
26/07:00am 20.0 20.0 18.0 88 1.2 NNW 15 19 8 10 1020.6 1020.4 0.0
26/06:30am 19.8 20.4 17.8 88 1.2 NNW 11 15 6 8 1020.2 1020.0 0.0
26/06:00am 19.7 18.6 17.7 88 1.2 NW 20 28 11 15 1020.1 1019.9 0.0
26/05:30am 19.9 17.6 17.7 87 1.4 NNW 26 33 14 18 1019.8 1019.6 0.0
26/05:00am 19.8 16.7 17.6 87 1.4 NNW 30 35 16 19 1019.3 1019.1 0.0
26/04:30am 19.8 17.9 17.6 87 1.4 NNW 24 32 13 17 1019.0 1018.8 0.0
26/04:00am 19.6 18.5 17.2 86 1.5 NNW 19 24 10 13 1018.9 1018.7 0.0
26/03:30am 19.6 17.5 17.2 86 1.5 NNW 24 33 13 18 1018.4 1018.2 0.0
26/03:00am 19.6 17.1 17.2 86 1.5 NNW 26 33 14 18 1018.5 1018.3 0.0
26/02:30am 19.6 17.5 17.2 86 1.5 NNW 24 33 13 18 1018.6 1018.4 0.0
26/02:00am 19.4 18.0 17.0 86 1.5 NNW 20 28 11 15 1018.9 1018.7 0.0
26/01:30am 19.5 18.6 16.9 85 1.6 NNW 17 28 9 15 1019.1 1018.9 0.0
26/01:00am 19.7 18.0 17.1 85 1.6 NNW 22 28 12 15 1019.5 1019.3 0.0
26/12:30am 19.5 19.1 17.1 86 1.5 NNW 15 22 8 12 1019.8 1019.6 0.0
26/12:00am 19.6 18.8 17.2 86 1.5 NNW 17 24 9 13 1019.8 1019.6 0.0
 
Date/Time
EST
Temp
°C
App
Temp
°C
Dew
Point
Rel
Hum
%
Delta-T
°C
Wind Press
QNH
hPa
Press
MSL
hPa
Rain
since 9 am
mm
Dir
 
Spd
km/h
Gust
km/h
Spd
kts
Gust
kts
25/11:30pm 19.8 19.8 17.2 85 1.6 NNW 13 20 7 11 1019.7 1019.5 0.0
25/11:00pm 19.8 20.2 17.2 85 1.6 NNW 11 19 6 10 1019.6 1019.4 0.0
25/10:30pm 19.8 19.7 17.0 84 1.7 NNW 13 20 7 11 1019.5 1019.3 0.0
25/10:00pm 19.8 18.5 16.8 83 1.8 NNW 19 24 10 13 1019.6 1019.4 0.0
25/09:30pm 19.8 18.3 16.8 83 1.8 NNW 20 28 11 15 1019.6 1019.4 0.0
25/09:00pm 19.9 18.6 16.9 83 1.8 NNW 19 26 10 14 1019.5 1019.3 0.0
25/08:30pm 20.0 19.5 16.8 82 1.9 NNW 15 22 8 12 1019.4 1019.2 0.0
25/08:00pm 20.1 20.0 16.9 82 1.9 N 13 24 7 13 1019.4 1019.2 0.0
25/07:30pm 20.1 19.8 16.5 80 2.2 N 13 19 7 10 1019.1 1018.9 0.0
25/07:00pm 20.3 20.0 16.5 79 2.3 N 13 17 7 9 1018.9 1018.7 0.0
25/06:30pm 20.5 20.6 16.5 78 2.4 N 11 17 6 9 1018.5 1018.3 0.0
25/06:00pm 20.8 20.6 16.6 77 2.5 N 13 20 7 11 1018.2 1018.0 0.0
25/05:30pm 21.3 21.7 16.3 73 3.0 N 9 13 5 7 1017.9 1017.7 0.0
25/05:00pm 22.2 22.1 16.0 68 3.7 N 11 15 6 8 1017.5 1017.3 0.0
25/04:30pm 23.0 23.4 16.3 66 4.1 N 9 13 5 7 1017.2 1017.0 0.0
25/04:00pm 23.8 23.6 16.8 65 4.3 NNW 13 24 7 13 1017.1 1016.9 0.0
25/03:30pm 24.3 24.3 17.1 64 4.5 NNW 13 19 7 10 1017.1 1016.9 0.0
25/03:00pm 24.8 24.6 17.5 64 4.6 NNW 15 24 8 13 1017.2 1017.0 0.0
25/02:30pm 24.5 23.3 17.0 63 4.7 NNW 19 28 10 15 1017.2 1017.0 0.0
25/02:00pm 25.1 25.1 17.3 62 4.9 N 13 17 7 9 1017.4 1017.2 0.0
25/01:30pm 25.3 24.5 17.2 61 5.1 NNW 17 22 9 12 1017.8 1017.6 0.0
25/01:00pm 25.9 25.4 17.8 61 5.1 NNW 17 26 9 14 1018.1 1017.9 0.0
25/12:30pm 25.3 23.3 17.5 62 4.9 NNW 24 35 13 19 1018.7 1018.5 0.0

Other Formats:

Comma delimited format used in spreadsheet applications
http://www.bom.gov.au/fwo/IDQ60801/IDQ60801.94584.axf

JavaScript Object Notation format (JSON) in row-major order
http://www.bom.gov.au/fwo/IDQ60801/IDQ60801.94584.json